TAF Text Data
IDs:
Format:
Raw Decoded Include METAR

Data at: 0603 UTC 07 Dec 2022

KSRQ 070523Z 0706/0806 VRB03KT P6SM FEW040
  FM071500 08006KT P6SM SCT050 SCT250
  FM072100 33006KT P6SM SCT050 SCT250
  FM080200 VRB03KT P6SM FEW040